sensor_id;sensor_type;location;lat;lon;timestamp;temperature;humidity
24250;DHT22;12379;49.820;8.648;2023-11-21T00:01:39;9.50;99.90
24250;DHT22;12379;49.820;8.648;2023-11-21T00:04:05;9.40;99.90
24250;DHT22;12379;49.820;8.648;2023-11-21T00:06:32;9.50;99.90
24250;DHT22;12379;49.820;8.648;2023-11-21T00:08:58;9.60;99.90
24250;DHT22;12379;49.820;8.648;2023-11-21T00:11:24;9.60;99.90
24250;DHT22;12379;49.820;8.648;2023-11-21T00:13:50;9.50;99.90
24250;DHT22;12379;49.820;8.648;2023-11-21T00:16:16;9.40;99.90
24250;DHT22;12379;49.820;8.648;2023-11-21T00:18:41;9.50;99.90
24250;DHT22;12379;49.820;8.648;2023-11-21T00:21:08;9.50;99.90
24250;DHT22;12379;49.820;8.648;2023-11-21T00:23:34;9.50;99.90
24250;DHT22;12379;49.820;8.648;2023-11-21T00:26:00;9.50;99.90
24250;DHT22;12379;49.820;8.648;2023-11-21T00:28:26;9.60;99.90
24250;DHT22;12379;49.820;8.648;2023-11-21T00:30:52;9.50;99.90
24250;DHT22;12379;49.820;8.648;2023-11-21T00:33:17;9.50;99.90
24250;DHT22;12379;49.820;8.648;2023-11-21T00:35:43;9.40;99.90
24250;DHT22;12379;49.820;8.648;2023-11-21T00:38:09;9.40;99.90
24250;DHT22;12379;49.820;8.648;2023-11-21T00:40:34;9.40;99.90
24250;DHT22;12379;49.820;8.648;2023-11-21T00:43:00;9.40;99.90
24250;DHT22;12379;49.820;8.648;2023-11-21T00:45:26;9.30;99.90
24250;DHT22;12379;49.820;8.648;2023-11-21T00:47:52;9.30;99.90
24250;DHT22;12379;49.820;8.648;2023-11-21T00:50:17;9.30;99.90
24250;DHT22;12379;49.820;8.648;2023-11-21T00:52:43;9.30;99.90
24250;DHT22;12379;49.820;8.648;2023-11-21T00:55:09;9.20;99.90
24250;DHT22;12379;49.820;8.648;2023-11-21T00:57:35;9.20;99.90
24250;DHT22;12379;49.820;8.648;2023-11-21T01:00:01;9.20;99.90
24250;DHT22;12379;49.820;8.648;2023-11-21T01:02:26;9.20;99.90
24250;DHT22;12379;49.820;8.648;2023-11-21T01:04:52;9.20;99.90
24250;DHT22;12379;49.820;8.648;2023-11-21T01:07:17;9.20;99.90
24250;DHT22;12379;49.820;8.648;2023-11-21T01:09:45;9.20;99.90
24250;DHT22;12379;49.820;8.648;2023-11-21T01:12:11;9.20;99.90
24250;DHT22;12379;49.820;8.648;2023-11-21T01:14:37;9.20;99.90
24250;DHT22;12379;49.820;8.648;2023-11-21T01:17:02;9.30;99.90
24250;DHT22;12379;49.820;8.648;2023-11-21T01:19:29;9.20;99.90
24250;DHT22;12379;49.820;8.648;2023-11-21T01:21:55;9.20;99.90
24250;DHT22;12379;49.820;8.648;2023-11-21T01:24:21;9.20;99.90
24250;DHT22;12379;49.820;8.648;2023-11-21T01:26:46;9.30;99.90
24250;DHT22;12379;49.820;8.648;2023-11-21T01:29:12;9.30;99.90
24250;DHT22;12379;49.820;8.648;2023-11-21T01:31:38;9.30;99.90
24250;DHT22;12379;49.820;8.648;2023-11-21T01:34:03;9.30;99.90
24250;DHT22;12379;49.820;8.648;2023-11-21T01:36:31;9.30;99.90
24250;DHT22;12379;49.820;8.648;2023-11-21T01:38:57;9.20;99.90
24250;DHT22;12379;49.820;8.648;2023-11-21T01:41:25;9.20;99.90
24250;DHT22;12379;49.820;8.648;2023-11-21T01:43:52;9.30;99.90
24250;DHT22;12379;49.820;8.648;2023-11-21T01:46:19;9.20;99.90
24250;DHT22;12379;49.820;8.648;2023-11-21T01:48:46;9.30;99.90
24250;DHT22;12379;49.820;8.648;2023-11-21T01:51:12;9.30;99.90
24250;DHT22;12379;49.820;8.648;2023-11-21T01:53:39;9.30;99.90
24250;DHT22;12379;49.820;8.648;2023-11-21T01:56:06;9.20;99.90
24250;DHT22;12379;49.820;8.648;2023-11-21T01:58:33;9.20;99.90
24250;DHT22;12379;49.820;8.648;2023-11-21T02:00:59;9.20;99.90
24250;DHT22;12379;49.820;8.648;2023-11-21T02:03:24;9.20;99.90
24250;DHT22;12379;49.820;8.648;2023-11-21T02:05:54;9.20;99.90
24250;DHT22;12379;49.820;8.648;2023-11-21T02:08:20;9.30;99.90
24250;DHT22;12379;49.820;8.648;2023-11-21T02:10:45;9.20;99.90
24250;DHT22;12379;49.820;8.648;2023-11-21T02:13:11;9.10;99.90
24250;DHT22;12379;49.820;8.648;2023-11-21T02:15:37;9.20;99.90
24250;DHT22;12379;49.820;8.648;2023-11-21T02:18:04;9.20;99.90
24250;DHT22;12379;49.820;8.648;2023-11-21T02:20:31;9.30;99.90
24250;DHT22;12379;49.820;8.648;2023-11-21T02:22:57;9.30;99.90
24250;DHT22;12379;49.820;8.648;2023-11-21T02:25:31;9.40;99.90
24250;DHT22;12379;49.820;8.648;2023-11-21T02:28:01;9.30;99.90
24250;DHT22;12379;49.820;8.648;2023-11-21T02:30:27;9.30;99.90
24250;DHT22;12379;49.820;8.648;2023-11-21T02:32:57;9.20;99.90
24250;DHT22;12379;49.820;8.648;2023-11-21T02:35:23;9.20;99.90
24250;DHT22;12379;49.820;8.648;2023-11-21T02:37:49;9.10;99.90
24250;DHT22;12379;49.820;8.648;2023-11-21T02:40:15;9.20;99.90
24250;DHT22;12379;49.820;8.648;2023-11-21T02:42:48;9.20;99.90
24250;DHT22;12379;49.820;8.648;2023-11-21T02:45:17;9.20;99.90
24250;DHT22;12379;49.820;8.648;2023-11-21T02:47:44;9.20;99.90
24250;DHT22;12379;49.820;8.648;2023-11-21T02:50:09;9.20;99.90
24250;DHT22;12379;49.820;8.648;2023-11-21T02:52:37;9.30;99.90
24250;DHT22;12379;49.820;8.648;2023-11-21T02:55:03;9.30;99.90
24250;DHT22;12379;49.820;8.648;2023-11-21T02:57:29;9.30;99.90
24250;DHT22;12379;49.820;8.648;2023-11-21T02:59:55;9.40;99.90
24250;DHT22;12379;49.820;8.648;2023-11-21T03:02:21;9.30;99.90
24250;DHT22;12379;49.820;8.648;2023-11-21T03:04:47;9.30;99.90
24250;DHT22;12379;49.820;8.648;2023-11-21T03:07:14;9.40;99.90
24250;DHT22;12379;49.820;8.648;2023-11-21T03:09:40;9.40;99.90
24250;DHT22;12379;49.820;8.648;2023-11-21T03:12:06;9.50;99.90
24250;DHT22;12379;49.820;8.648;2023-11-21T03:14:34;9.50;99.90
24250;DHT22;12379;49.820;8.648;2023-11-21T03:17:00;9.60;99.90
24250;DHT22;12379;49.820;8.648;2023-11-21T03:19:26;9.60;99.90
24250;DHT22;12379;49.820;8.648;2023-11-21T03:21:51;9.50;99.90
24250;DHT22;12379;49.820;8.648;2023-11-21T03:24:18;9.40;99.90
24250;DHT22;12379;49.820;8.648;2023-11-21T03:26:45;9.40;99.90
24250;DHT22;12379;49.820;8.648;2023-11-21T03:29:12;9.40;99.90
24250;DHT22;12379;49.820;8.648;2023-11-21T03:31:39;9.40;99.90
24250;DHT22;12379;49.820;8.648;2023-11-21T03:34:05;9.40;99.90
24250;DHT22;12379;49.820;8.648;2023-11-21T03:36:31;9.30;99.90
24250;DHT22;12379;49.820;8.648;2023-11-21T03:38:57;9.40;99.90
24250;DHT22;12379;49.820;8.648;2023-11-21T03:41:22;9.30;99.90
24250;DHT22;12379;49.820;8.648;2023-11-21T03:43:48;9.20;99.90
24250;DHT22;12379;49.820;8.648;2023-11-21T03:46:14;9.20;99.90
24250;DHT22;12379;49.820;8.648;2023-11-21T03:48:39;9.20;99.90
24250;DHT22;12379;49.820;8.648;2023-11-21T03:51:05;9.20;99.90
24250;DHT22;12379;49.820;8.648;2023-11-21T03:53:31;9.20;99.90
24250;DHT22;12379;49.820;8.648;2023-11-21T03:55:57;9.20;99.90
24250;DHT22;12379;49.820;8.648;2023-11-21T03:58:23;9.30;99.90
24250;DHT22;12379;49.820;8.648;2023-11-21T04:00:48;9.20;99.90
24250;DHT22;12379;49.820;8.648;2023-11-21T04:03:14;9.20;99.90
24250;DHT22;12379;49.820;8.648;2023-11-21T04:05:40;9.30;99.90
24250;DHT22;12379;49.820;8.648;2023-11-21T04:08:06;9.40;99.90
24250;DHT22;12379;49.820;8.648;2023-11-21T04:10:32;9.40;99.90
24250;DHT22;12379;49.820;8.648;2023-11-21T04:12:58;9.40;99.90
24250;DHT22;12379;49.820;8.648;2023-11-21T04:15:25;9.40;99.90
24250;DHT22;12379;49.820;8.648;2023-11-21T04:17:51;9.30;99.90
24250;DHT22;12379;49.820;8.648;2023-11-21T04:20:17;9.20;99.90
24250;DHT22;12379;49.820;8.648;2023-11-21T04:22:43;9.20;99.90
24250;DHT22;12379;49.820;8.648;2023-11-21T04:25:10;9.20;99.90
24250;DHT22;12379;49.820;8.648;2023-11-21T04:27:38;9.30;99.90
24250;DHT22;12379;49.820;8.648;2023-11-21T04:30:04;9.30;99.90
24250;DHT22;12379;49.820;8.648;2023-11-21T04:32:30;9.30;99.90
24250;DHT22;12379;49.820;8.648;2023-11-21T04:34:56;9.30;99.90
24250;DHT22;12379;49.820;8.648;2023-11-21T04:37:21;9.40;99.90
24250;DHT22;12379;49.820;8.648;2023-11-21T04:39:48;9.30;99.90
24250;DHT22;12379;49.820;8.648;2023-11-21T04:42:13;9.40;99.90
24250;DHT22;12379;49.820;8.648;2023-11-21T04:44:39;9.30;99.90
24250;DHT22;12379;49.820;8.648;2023-11-21T04:47:06;9.30;99.90
24250;DHT22;12379;49.820;8.648;2023-11-21T04:49:33;9.30;99.90
24250;DHT22;12379;49.820;8.648;2023-11-21T04:51:58;9.40;99.90
24250;DHT22;12379;49.820;8.648;2023-11-21T04:54:24;9.40;99.90
24250;DHT22;12379;49.820;8.648;2023-11-21T04:56:50;9.30;99.90
24250;DHT22;12379;49.820;8.648;2023-11-21T04:59:15;9.40;99.90
24250;DHT22;12379;49.820;8.648;2023-11-21T05:01:41;9.30;99.90
24250;DHT22;12379;49.820;8.648;2023-11-21T05:04:07;9.30;99.90
24250;DHT22;12379;49.820;8.648;2023-11-21T05:06:34;9.30;99.90
24250;DHT22;12379;49.820;8.648;2023-11-21T05:09:00;9.30;99.90
24250;DHT22;12379;49.820;8.648;2023-11-21T05:11:26;9.30;99.90
24250;DHT22;12379;49.820;8.648;2023-11-21T05:13:52;9.20;99.90
24250;DHT22;12379;49.820;8.648;2023-11-21T05:16:19;9.20;99.90
24250;DHT22;12379;49.820;8.648;2023-11-21T05:18:45;9.20;99.90
24250;DHT22;12379;49.820;8.648;2023-11-21T05:21:11;9.20;99.90
24250;DHT22;12379;49.820;8.648;2023-11-21T05:23:36;9.10;99.90
24250;DHT22;12379;49.820;8.648;2023-11-21T05:26:03;9.10;99.90
24250;DHT22;12379;49.820;8.648;2023-11-21T05:28:29;9.20;99.90
24250;DHT22;12379;49.820;8.648;2023-11-21T05:30:55;9.10;99.90
24250;DHT22;12379;49.820;8.648;2023-11-21T05:33:21;9.10;99.90
24250;DHT22;12379;49.820;8.648;2023-11-21T05:35:46;9.10;99.90
24250;DHT22;12379;49.820;8.648;2023-11-21T05:38:14;9.10;99.90
24250;DHT22;12379;49.820;8.648;2023-11-21T05:40:39;9.10;99.90
24250;DHT22;12379;49.820;8.648;2023-11-21T05:43:05;9.10;99.90
24250;DHT22;12379;49.820;8.648;2023-11-21T05:45:31;9.10;99.90
24250;DHT22;12379;49.820;8.648;2023-11-21T05:48:03;9.20;99.90
24250;DHT22;12379;49.820;8.648;2023-11-21T05:50:29;9.20;99.90
24250;DHT22;12379;49.820;8.648;2023-11-21T05:52:59;9.20;99.90
24250;DHT22;12379;49.820;8.648;2023-11-21T05:55:26;9.20;99.90
24250;DHT22;12379;49.820;8.648;2023-11-21T05:57:54;9.30;99.90
24250;DHT22;12379;49.820;8.648;2023-11-21T06:00:23;9.30;99.90
24250;DHT22;12379;49.820;8.648;2023-11-21T06:02:52;9.40;99.90
24250;DHT22;12379;49.820;8.648;2023-11-21T06:05:30;9.40;99.90
24250;DHT22;12379;49.820;8.648;2023-11-21T06:08:00;9.40;99.90
24250;DHT22;12379;49.820;8.648;2023-11-21T06:10:26;9.40;99.90
24250;DHT22;12379;49.820;8.648;2023-11-21T06:12:53;9.40;99.90
24250;DHT22;12379;49.820;8.648;2023-11-21T06:15:21;9.30;99.90
24250;DHT22;12379;49.820;8.648;2023-11-21T06:17:52;9.30;99.90
24250;DHT22;12379;49.820;8.648;2023-11-21T06:20:19;9.20;99.90
24250;DHT22;12379;49.820;8.648;2023-11-21T06:22:50;9.20;99.90
24250;DHT22;12379;49.820;8.648;2023-11-21T06:25:19;9.10;99.90
24250;DHT22;12379;49.820;8.648;2023-11-21T06:27:50;9.10;99.90
24250;DHT22;12379;49.820;8.648;2023-11-21T06:30:19;9.00;99.90
24250;DHT22;12379;49.820;8.648;2023-11-21T06:32:48;9.00;99.90
24250;DHT22;12379;49.820;8.648;2023-11-21T06:35:15;9.00;99.90
24250;DHT22;12379;49.820;8.648;2023-11-21T06:37:43;9.00;99.90
24250;DHT22;12379;49.820;8.648;2023-11-21T06:40:20;9.00;99.90
24250;DHT22;12379;49.820;8.648;2023-11-21T06:42:45;9.00;99.90
24250;DHT22;12379;49.820;8.648;2023-11-21T06:45:12;9.00;99.90
24250;DHT22;12379;49.820;8.648;2023-11-21T06:47:38;9.00;99.90
24250;DHT22;12379;49.820;8.648;2023-11-21T06:50:08;9.00;99.90
24250;DHT22;12379;49.820;8.648;2023-11-21T06:52:51;9.00;99.90
24250;DHT22;12379;49.820;8.648;2023-11-21T06:55:22;9.00;99.90
24250;DHT22;12379;49.820;8.648;2023-11-21T06:57:51;9.00;99.90
24250;DHT22;12379;49.820;8.648;2023-11-21T07:00:17;9.00;99.90
24250;DHT22;12379;49.820;8.648;2023-11-21T07:02:44;9.00;99.90
24250;DHT22;12379;49.820;8.648;2023-11-21T07:05:10;9.00;99.90
24250;DHT22;12379;49.820;8.648;2023-11-21T07:07:36;9.00;99.90
24250;DHT22;12379;49.820;8.648;2023-11-21T07:10:03;9.00;99.90
24250;DHT22;12379;49.820;8.648;2023-11-21T07:12:30;9.00;99.90
24250;DHT22;12379;49.820;8.648;2023-11-21T07:14:57;9.00;99.90
24250;DHT22;12379;49.820;8.648;2023-11-21T07:17:23;8.90;99.90
24250;DHT22;12379;49.820;8.648;2023-11-21T07:19:49;9.00;99.90
24250;DHT22;12379;49.820;8.648;2023-11-21T07:22:15;9.00;99.90
24250;DHT22;12379;49.820;8.648;2023-11-21T07:24:48;9.00;99.90
24250;DHT22;12379;49.820;8.648;2023-11-21T07:27:15;9.00;99.90
24250;DHT22;12379;49.820;8.648;2023-11-21T07:29:40;9.00;99.90
24250;DHT22;12379;49.820;8.648;2023-11-21T07:32:06;9.00;99.90
24250;DHT22;12379;49.820;8.648;2023-11-21T07:34:32;9.00;99.90
24250;DHT22;12379;49.820;8.648;2023-11-21T07:36:57;9.00;99.90
24250;DHT22;12379;49.820;8.648;2023-11-21T07:39:23;9.00;99.90
24250;DHT22;12379;49.820;8.648;2023-11-21T07:41:48;9.10;99.90
24250;DHT22;12379;49.820;8.648;2023-11-21T07:44:19;9.10;99.90
24250;DHT22;12379;49.820;8.648;2023-11-21T07:46:45;9.10;99.90
24250;DHT22;12379;49.820;8.648;2023-11-21T07:49:11;9.10;99.90
24250;DHT22;12379;49.820;8.648;2023-11-21T07:51:37;9.10;99.90
24250;DHT22;12379;49.820;8.648;2023-11-21T07:54:03;9.20;99.90
24250;DHT22;12379;49.820;8.648;2023-11-21T07:56:28;9.20;99.90
24250;DHT22;12379;49.820;8.648;2023-11-21T07:58:54;9.20;99.90
24250;DHT22;12379;49.820;8.648;2023-11-21T08:01:20;9.20;99.90
24250;DHT22;12379;49.820;8.648;2023-11-21T08:03:48;9.30;99.90
24250;DHT22;12379;49.820;8.648;2023-11-21T08:06:22;9.30;99.90
24250;DHT22;12379;49.820;8.648;2023-11-21T08:08:51;9.40;99.90
24250;DHT22;12379;49.820;8.648;2023-11-21T08:11:17;9.40;99.90
24250;DHT22;12379;49.820;8.648;2023-11-21T08:13:45;9.40;99.90
24250;DHT22;12379;49.820;8.648;2023-11-21T08:16:12;9.50;99.90
24250;DHT22;12379;49.820;8.648;2023-11-21T08:19:03;9.60;99.90
24250;DHT22;12379;49.820;8.648;2023-11-21T08:21:35;9.60;99.90
24250;DHT22;12379;49.820;8.648;2023-11-21T08:24:05;9.70;99.90
24250;DHT22;12379;49.820;8.648;2023-11-21T08:26:41;9.70;99.90
24250;DHT22;12379;49.820;8.648;2023-11-21T08:32:24;9.70;99.90
24250;DHT22;12379;49.820;8.648;2023-11-21T08:34:53;9.80;99.90
24250;DHT22;12379;49.820;8.648;2023-11-21T08:37:24;9.80;99.90
24250;DHT22;12379;49.820;8.648;2023-11-21T08:39:52;9.90;99.90
24250;DHT22;12379;49.820;8.648;2023-11-21T08:42:33;9.80;99.90
24250;DHT22;12379;49.820;8.648;2023-11-21T08:45:04;9.90;99.90
24250;DHT22;12379;49.820;8.648;2023-11-21T08:47:31;9.90;99.90
24250;DHT22;12379;49.820;8.648;2023-11-21T08:49:56;9.90;99.90
24250;DHT22;12379;49.820;8.648;2023-11-21T08:52:24;9.90;99.90
24250;DHT22;12379;49.820;8.648;2023-11-21T08:54:49;9.90;99.90
24250;DHT22;12379;49.820;8.648;2023-11-21T08:57:24;9.90;99.90
24250;DHT22;12379;49.820;8.648;2023-11-21T08:59:50;9.80;99.90
24250;DHT22;12379;49.820;8.648;2023-11-21T09:02:21;9.90;99.90
24250;DHT22;12379;49.820;8.648;2023-11-21T09:04:49;9.90;99.90
24250;DHT22;12379;49.820;8.648;2023-11-21T09:07:14;9.80;99.90
24250;DHT22;12379;49.820;8.648;2023-11-21T09:09:40;9.90;99.90
24250;DHT22;12379;49.820;8.648;2023-11-21T09:12:06;9.90;99.90
24250;DHT22;12379;49.820;8.648;2023-11-21T09:14:31;9.90;99.90
24250;DHT22;12379;49.820;8.648;2023-11-21T09:16:57;10.00;99.90
24250;DHT22;12379;49.820;8.648;2023-11-21T09:19:23;10.00;99.90
24250;DHT22;12379;49.820;8.648;2023-11-21T09:21:48;9.90;99.90
24250;DHT22;12379;49.820;8.648;2023-11-21T09:24:14;10.00;99.90
24250;DHT22;12379;49.820;8.648;2023-11-21T09:26:40;10.00;99.90
24250;DHT22;12379;49.820;8.648;2023-11-21T09:29:05;10.00;99.90
24250;DHT22;12379;49.820;8.648;2023-11-21T09:31:31;9.90;99.90
24250;DHT22;12379;49.820;8.648;2023-11-21T09:33:56;9.90;99.90
24250;DHT22;12379;49.820;8.648;2023-11-21T09:36:22;10.00;99.90
24250;DHT22;12379;49.820;8.648;2023-11-21T09:38:52;9.90;99.90
24250;DHT22;12379;49.820;8.648;2023-11-21T09:41:31;10.10;99.90
24250;DHT22;12379;49.820;8.648;2023-11-21T09:44:02;10.10;99.90
24250;DHT22;12379;49.820;8.648;2023-11-21T09:46:29;10.10;99.90
24250;DHT22;12379;49.820;8.648;2023-11-21T09:48:55;10.10;99.90
24250;DHT22;12379;49.820;8.648;2023-11-21T09:51:26;10.10;99.90
24250;DHT22;12379;49.820;8.648;2023-11-21T09:53:55;10.20;99.90
24250;DHT22;12379;49.820;8.648;2023-11-21T09:56:23;10.20;99.90
24250;DHT22;12379;49.820;8.648;2023-11-21T09:58:53;10.40;99.90
24250;DHT22;12379;49.820;8.648;2023-11-21T10:01:19;10.30;99.90
24250;DHT22;12379;49.820;8.648;2023-11-21T10:03:46;10.30;99.90
24250;DHT22;12379;49.820;8.648;2023-11-21T10:06:13;10.40;99.90
24250;DHT22;12379;49.820;8.648;2023-11-21T10:08:40;10.40;99.90
24250;DHT22;12379;49.820;8.648;2023-11-21T10:11:07;10.30;99.90
24250;DHT22;12379;49.820;8.648;2023-11-21T10:13:34;10.40;99.90
24250;DHT22;12379;49.820;8.648;2023-11-21T10:16:00;10.60;99.90
24250;DHT22;12379;49.820;8.648;2023-11-21T10:18:32;10.60;99.90
24250;DHT22;12379;49.820;8.648;2023-11-21T10:20:59;10.40;99.90
24250;DHT22;12379;49.820;8.648;2023-11-21T10:23:25;10.50;99.90
24250;DHT22;12379;49.820;8.648;2023-11-21T10:25:52;10.50;99.90
24250;DHT22;12379;49.820;8.648;2023-11-21T10:28:18;10.50;99.90
24250;DHT22;12379;49.820;8.648;2023-11-21T10:30:44;10.70;99.90
24250;DHT22;12379;49.820;8.648;2023-11-21T10:33:10;10.80;99.90
24250;DHT22;12379;49.820;8.648;2023-11-21T10:35:44;10.80;99.90
24250;DHT22;12379;49.820;8.648;2023-11-21T10:38:18;10.80;99.90
24250;DHT22;12379;49.820;8.648;2023-11-21T10:40:46;10.90;99.90
24250;DHT22;12379;49.820;8.648;2023-11-21T10:43:13;10.90;99.90
24250;DHT22;12379;49.820;8.648;2023-11-21T10:45:40;11.00;99.90
24250;DHT22;12379;49.820;8.648;2023-11-21T10:48:07;10.90;99.90
24250;DHT22;12379;49.820;8.648;2023-11-21T10:50:43;10.90;99.90
24250;DHT22;12379;49.820;8.648;2023-11-21T10:53:09;10.90;99.90
24250;DHT22;12379;49.820;8.648;2023-11-21T10:55:37;11.00;99.90
24250;DHT22;12379;49.820;8.648;2023-11-21T10:58:03;11.00;99.90
24250;DHT22;12379;49.820;8.648;2023-11-21T11:00:31;11.10;99.90
24250;DHT22;12379;49.820;8.648;2023-11-21T11:02:56;11.00;99.90
24250;DHT22;12379;49.820;8.648;2023-11-21T11:05:24;11.10;99.90
24250;DHT22;12379;49.820;8.648;2023-11-21T11:10:25;11.20;99.90
24250;DHT22;12379;49.820;8.648;2023-11-21T11:12:53;11.50;99.90
24250;DHT22;12379;49.820;8.648;2023-11-21T11:15:19;11.80;99.90
24250;DHT22;12379;49.820;8.648;2023-11-21T11:17:46;12.00;99.90
24250;DHT22;12379;49.820;8.648;2023-11-21T11:20:12;11.90;99.90
24250;DHT22;12379;49.820;8.648;2023-11-21T11:22:59;11.50;99.90
24250;DHT22;12379;49.820;8.648;2023-11-21T11:25:53;11.20;99.90
24250;DHT22;12379;49.820;8.648;2023-11-21T11:28:29;11.10;99.90
24250;DHT22;12379;49.820;8.648;2023-11-21T11:31:11;10.90;99.90
24250;DHT22;12379;49.820;8.648;2023-11-21T11:36:44;10.90;99.90
24250;DHT22;12379;49.820;8.648;2023-11-21T11:39:39;10.80;99.90
24250;DHT22;12379;49.820;8.648;2023-11-21T11:42:08;10.90;99.90
24250;DHT22;12379;49.820;8.648;2023-11-21T11:47:31;11.10;99.90
24250;DHT22;12379;49.820;8.648;2023-11-21T11:50:12;11.30;99.90
24250;DHT22;12379;49.820;8.648;2023-11-21T11:52:48;11.50;99.90
24250;DHT22;12379;49.820;8.648;2023-11-21T11:55:20;11.70;99.90
24250;DHT22;12379;49.820;8.648;2023-11-21T11:57:53;11.90;99.90
24250;DHT22;12379;49.820;8.648;2023-11-21T12:02:56;12.50;99.90
24250;DHT22;12379;49.820;8.648;2023-11-21T12:05:23;12.60;99.90
24250;DHT22;12379;49.820;8.648;2023-11-21T12:07:53;12.40;99.90
24250;DHT22;12379;49.820;8.648;2023-11-21T12:10:26;12.10;99.90
24250;DHT22;12379;49.820;8.648;2023-11-21T12:12:57;12.10;99.90
24250;DHT22;12379;49.820;8.648;2023-11-21T12:15:24;11.90;99.90
24250;DHT22;12379;49.820;8.648;2023-11-21T12:17:51;11.80;99.90
24250;DHT22;12379;49.820;8.648;2023-11-21T12:20:22;12.10;99.90
24250;DHT22;12379;49.820;8.648;2023-11-21T12:22:52;12.20;99.90
24250;DHT22;12379;49.820;8.648;2023-11-21T12:25:22;12.10;99.90
24250;DHT22;12379;49.820;8.648;2023-11-21T12:27:50;12.20;99.90
24250;DHT22;12379;49.820;8.648;2023-11-21T12:30:18;12.10;99.90
24250;DHT22;12379;49.820;8.648;2023-11-21T12:32:45;12.20;99.90
24250;DHT22;12379;49.820;8.648;2023-11-21T12:35:13;12.10;99.90
24250;DHT22;12379;49.820;8.648;2023-11-21T12:37:39;12.00;99.90
24250;DHT22;12379;49.820;8.648;2023-11-21T12:40:06;12.00;99.90
24250;DHT22;12379;49.820;8.648;2023-11-21T12:42:33;12.00;99.90
24250;DHT22;12379;49.820;8.648;2023-11-21T12:45:25;12.00;99.90
24250;DHT22;12379;49.820;8.648;2023-11-21T12:47:59;12.00;99.90
24250;DHT22;12379;49.820;8.648;2023-11-21T12:50:27;12.00;99.90
24250;DHT22;12379;49.820;8.648;2023-11-21T12:53:02;12.10;99.90
24250;DHT22;12379;49.820;8.648;2023-11-21T12:55:31;12.00;99.90
24250;DHT22;12379;49.820;8.648;2023-11-21T12:57:57;12.00;99.90
24250;DHT22;12379;49.820;8.648;2023-11-21T13:00:49;12.00;99.90
24250;DHT22;12379;49.820;8.648;2023-11-21T13:03:16;12.00;99.90
24250;DHT22;12379;49.820;8.648;2023-11-21T13:05:44;12.00;99.90
24250;DHT22;12379;49.820;8.648;2023-11-21T13:08:11;11.80;99.90
24250;DHT22;12379;49.820;8.648;2023-11-21T13:10:45;11.70;99.90
24250;DHT22;12379;49.820;8.648;2023-11-21T13:13:13;11.60;99.90
24250;DHT22;12379;49.820;8.648;2023-11-21T13:15:49;11.60;99.90
24250;DHT22;12379;49.820;8.648;2023-11-21T13:18:15;11.60;99.90
24250;DHT22;12379;49.820;8.648;2023-11-21T13:20:41;11.60;99.90
24250;DHT22;12379;49.820;8.648;2023-11-21T13:23:09;11.60;99.90
24250;DHT22;12379;49.820;8.648;2023-11-21T13:25:37;11.60;99.90
24250;DHT22;12379;49.820;8.648;2023-11-21T13:28:04;11.60;99.90
24250;DHT22;12379;49.820;8.648;2023-11-21T13:30:30;11.60;99.90
24250;DHT22;12379;49.820;8.648;2023-11-21T13:33:03;11.60;99.90
24250;DHT22;12379;49.820;8.648;2023-11-21T13:35:33;11.60;99.90
24250;DHT22;12379;49.820;8.648;2023-11-21T13:38:13;11.50;99.90
24250;DHT22;12379;49.820;8.648;2023-11-21T13:40:40;11.40;99.90
24250;DHT22;12379;49.820;8.648;2023-11-21T13:43:10;11.40;99.90
24250;DHT22;12379;49.820;8.648;2023-11-21T13:45:37;11.40;99.90
24250;DHT22;12379;49.820;8.648;2023-11-21T13:48:05;11.40;99.90
24250;DHT22;12379;49.820;8.648;2023-11-21T13:50:33;11.40;99.90
24250;DHT22;12379;49.820;8.648;2023-11-21T13:53:02;11.30;99.90
24250;DHT22;12379;49.820;8.648;2023-11-21T13:55:36;11.40;99.90
24250;DHT22;12379;49.820;8.648;2023-11-21T13:58:02;11.40;99.90
24250;DHT22;12379;49.820;8.648;2023-11-21T14:00:29;11.40;99.90
24250;DHT22;12379;49.820;8.648;2023-11-21T14:03:20;11.50;99.90
24250;DHT22;12379;49.820;8.648;2023-11-21T14:05:51;11.40;99.90
24250;DHT22;12379;49.820;8.648;2023-11-21T14:08:20;11.30;99.90
24250;DHT22;12379;49.820;8.648;2023-11-21T14:10:49;11.40;99.90
24250;DHT22;12379;49.820;8.648;2023-11-21T14:13:26;11.30;99.90
24250;DHT22;12379;49.820;8.648;2023-11-21T14:15:52;11.30;99.90
24250;DHT22;12379;49.820;8.648;2023-11-21T14:18:24;11.30;99.90
24250;DHT22;12379;49.820;8.648;2023-11-21T14:20:56;11.30;99.90
24250;DHT22;12379;49.820;8.648;2023-11-21T14:23:22;11.20;99.90
24250;DHT22;12379;49.820;8.648;2023-11-21T14:25:48;11.20;99.90
24250;DHT22;12379;49.820;8.648;2023-11-21T14:28:15;11.10;99.90
24250;DHT22;12379;49.820;8.648;2023-11-21T14:30:41;11.10;99.90
24250;DHT22;12379;49.820;8.648;2023-11-21T14:33:08;11.10;99.90
24250;DHT22;12379;49.820;8.648;2023-11-21T14:35:35;11.00;99.90
24250;DHT22;12379;49.820;8.648;2023-11-21T14:38:02;11.00;99.90
24250;DHT22;12379;49.820;8.648;2023-11-21T14:40:30;11.00;99.90
24250;DHT22;12379;49.820;8.648;2023-11-21T14:43:00;10.90;99.90
24250;DHT22;12379;49.820;8.648;2023-11-21T14:45:25;10.90;99.90
24250;DHT22;12379;49.820;8.648;2023-11-21T14:47:52;10.90;99.90
24250;DHT22;12379;49.820;8.648;2023-11-21T14:50:45;10.80;99.90
24250;DHT22;12379;49.820;8.648;2023-11-21T14:53:33;10.80;99.90
24250;DHT22;12379;49.820;8.648;2023-11-21T14:56:09;10.80;99.90
24250;DHT22;12379;49.820;8.648;2023-11-21T14:58:35;10.70;99.90
24250;DHT22;12379;49.820;8.648;2023-11-21T15:01:04;10.70;99.90
24250;DHT22;12379;49.820;8.648;2023-11-21T15:03:31;10.70;99.90
24250;DHT22;12379;49.820;8.648;2023-11-21T15:06:02;10.60;99.90
24250;DHT22;12379;49.820;8.648;2023-11-21T15:08:54;10.60;99.90
24250;DHT22;12379;49.820;8.648;2023-11-21T15:11:35;10.60;99.90
24250;DHT22;12379;49.820;8.648;2023-11-21T15:14:04;10.70;99.90
24250;DHT22;12379;49.820;8.648;2023-11-21T15:16:33;10.60;99.90
24250;DHT22;12379;49.820;8.648;2023-11-21T15:18:58;10.60;99.90
24250;DHT22;12379;49.820;8.648;2023-11-21T15:21:25;10.60;99.90
24250;DHT22;12379;49.820;8.648;2023-11-21T15:23:51;10.60;99.90
24250;DHT22;12379;49.820;8.648;2023-11-21T15:26:17;10.50;99.90
24250;DHT22;12379;49.820;8.648;2023-11-21T15:28:42;10.50;99.90
24250;DHT22;12379;49.820;8.648;2023-11-21T15:31:08;10.50;99.90
24250;DHT22;12379;49.820;8.648;2023-11-21T15:33:34;10.50;99.90
24250;DHT22;12379;49.820;8.648;2023-11-21T15:36:02;10.40;99.90
24250;DHT22;12379;49.820;8.648;2023-11-21T15:38:29;10.40;99.90
24250;DHT22;12379;49.820;8.648;2023-11-21T15:40:55;10.40;99.90
24250;DHT22;12379;49.820;8.648;2023-11-21T15:43:20;10.40;99.90
24250;DHT22;12379;49.820;8.648;2023-11-21T15:45:46;10.40;99.90
24250;DHT22;12379;49.820;8.648;2023-11-21T15:48:12;10.40;99.90
24250;DHT22;12379;49.820;8.648;2023-11-21T15:50:37;10.40;99.90
24250;DHT22;12379;49.820;8.648;2023-11-21T15:53:03;10.30;99.90
24250;DHT22;12379;49.820;8.648;2023-11-21T15:55:30;10.30;99.90
24250;DHT22;12379;49.820;8.648;2023-11-21T15:57:56;10.30;99.90
24250;DHT22;12379;49.820;8.648;2023-11-21T16:00:21;10.20;99.90